createdAt,value
2023-04-09T00:01:48.578Z,98580.91
2023-04-09T00:04:51.335Z,98574.25
2023-04-09T00:07:54.360Z,98572.59
2023-04-09T00:11:00.007Z,98581.44
2023-04-09T00:14:02.701Z,98575.19
2023-04-09T00:17:05.536Z,98578.78
2023-04-09T00:20:08.916Z,98571.06
2023-04-09T00:23:12.958Z,98570.56
2023-04-09T00:26:15.843Z,98579.13
2023-04-09T00:29:19.060Z,98572.75
2023-04-09T00:32:21.776Z,98568.41
2023-04-09T00:35:24.733Z,98574.06
2023-04-09T00:38:27.517Z,98577.78
2023-04-09T00:41:30.454Z,98577.06
2023-04-09T00:44:33.406Z,98580.56
2023-04-09T00:47:36.544Z,98577.22
2023-04-09T00:50:39.578Z,98583.63
2023-04-09T00:53:44.240Z,98582.97
2023-04-09T00:56:47.336Z,98581.25
2023-04-09T00:59:50.029Z,98579.59
2023-04-09T01:02:53.560Z,98589.38
2023-04-09T01:06:15.403Z,98594.72
2023-04-09T01:09:23.842Z,98583.63
2023-04-09T01:12:34.609Z,98594.94
2023-04-09T01:15:42.326Z,98592.69
2023-04-09T01:19:00.316Z,98595.59
2023-04-09T01:22:03.455Z,98595.78
2023-04-09T01:25:30.676Z,98588.00
2023-04-09T01:28:34.355Z,98591.53
2023-04-09T01:31:38.990Z,98594.34
2023-04-09T01:34:42.777Z,98586.97
2023-04-09T01:37:45.832Z,98587.72
2023-04-09T01:40:50.375Z,98596.44
2023-04-09T01:43:54.309Z,98589.06
2023-04-09T01:46:58.689Z,98594.34
2023-04-09T01:50:01.939Z,98590.97
2023-04-09T01:53:04.733Z,98595.44
2023-04-09T01:56:09.148Z,98590.50
2023-04-09T01:59:12.624Z,98596.34
2023-04-09T02:02:23.891Z,98595.16
2023-04-09T02:05:29.758Z,98597.75
2023-04-09T02:08:35.174Z,98596.66
2023-04-09T02:11:41.709Z,98602.88
2023-04-09T02:14:47.241Z,98594.84
2023-04-09T02:17:50.031Z,98590.31
2023-04-09T02:20:52.889Z,98588.72
2023-04-09T02:23:56.636Z,98590.25
2023-04-09T02:27:00.353Z,98590.31
2023-04-09T02:30:03.245Z,98589.31
2023-04-09T02:33:05.973Z,98592.50
2023-04-09T02:36:12.931Z,98590.13
2023-04-09T02:39:16.382Z,98597.00
2023-04-09T02:42:19.199Z,98592.91
2023-04-09T02:45:22.441Z,98585.88
2023-04-09T02:48:25.406Z,98580.69
2023-04-09T02:51:28.289Z,98588.66
2023-04-09T02:54:31.429Z,98593.06
2023-04-09T02:57:34.434Z,98604.88
2023-04-09T03:00:37.269Z,98599.28
2023-04-09T03:03:42.674Z,98589.94
2023-04-09T03:06:45.687Z,98597.38
2023-04-09T03:09:49.834Z,98594.78
2023-04-09T03:12:52.753Z,98598.88
2023-04-09T03:15:55.495Z,98591.50
2023-04-09T03:18:58.138Z,98594.00
2023-04-09T03:22:00.803Z,98587.66
2023-04-09T03:25:06.911Z,98589.00
2023-04-09T03:28:10.994Z,98584.31
2023-04-09T03:31:18.154Z,98590.75
2023-04-09T03:34:22.042Z,98592.41
2023-04-09T03:37:28.590Z,98591.59
2023-04-09T03:40:31.969Z,98591.00
2023-04-09T03:43:34.710Z,98591.50
2023-04-09T03:46:37.717Z,98599.94
2023-04-09T03:49:42.824Z,98601.09
2023-04-09T03:52:53.789Z,98594.66
2023-04-09T03:55:56.842Z,98605.19
2023-04-09T03:59:02.028Z,98601.88
2023-04-09T04:02:13.035Z,98602.28
2023-04-09T04:05:24.917Z,98605.38
2023-04-09T04:08:29.517Z,98605.03
2023-04-09T04:11:34.316Z,98601.25
2023-04-09T04:14:38.472Z,98603.53
2023-04-09T04:17:52.084Z,98606.44
2023-04-09T04:21:15.700Z,98604.69
2023-04-09T04:24:22.774Z,98604.00
2023-04-09T04:27:25.767Z,98611.38
2023-04-09T04:30:30.760Z,98605.38
2023-04-09T04:33:43.867Z,98605.38
2023-04-09T04:36:50.148Z,98608.38
2023-04-09T04:39:54.582Z,98608.97
2023-04-09T04:42:57.973Z,98601.78
2023-04-09T04:46:00.927Z,98618.25
2023-04-09T04:49:06.715Z,98611.22
2023-04-09T04:52:17.773Z,98607.28
2023-04-09T04:55:25.869Z,98605.88
2023-04-09T04:58:29.758Z,98616.06
2023-04-09T05:01:36.454Z,98614.56
2023-04-09T05:04:43.351Z,98616.75
2023-04-09T05:07:49.444Z,98618.16
2023-04-09T05:10:56.511Z,98617.50
2023-04-09T05:14:07.051Z,98628.78
2023-04-09T05:17:09.972Z,98624.94
2023-04-09T05:20:21.174Z,98620.00
2023-04-09T05:23:32.942Z,98632.63
2023-04-09T05:26:36.248Z,98632.97
2023-04-09T05:29:39.017Z,98626.09
2023-04-09T05:32:47.071Z,98631.28
2023-04-09T05:35:52.001Z,98633.47
2023-04-09T05:38:55.493Z,98635.56
2023-04-09T05:41:58.973Z,98642.25
2023-04-09T05:45:20.444Z,98648.69
2023-04-09T05:48:29.199Z,98650.75
2023-04-09T05:51:33.016Z,98664.63
2023-04-09T05:54:36.828Z,98652.34
2023-04-09T05:57:42.578Z,98663.53
2023-04-09T06:00:45.612Z,98662.38
2023-04-09T06:03:48.522Z,98660.47
2023-04-09T06:06:52.276Z,98670.22
2023-04-09T06:09:56.676Z,98662.56
2023-04-09T06:12:59.340Z,98668.84
2023-04-09T06:16:04.934Z,98669.16
2023-04-09T06:19:07.786Z,98663.84
2023-04-09T06:22:11.630Z,98663.69
2023-04-09T06:25:14.427Z,98656.69
2023-04-09T06:28:17.317Z,98660.38
2023-04-09T06:31:21.089Z,98659.28
2023-04-09T06:34:24.071Z,98663.38
2023-04-09T06:37:27.100Z,98659.38
2023-04-09T06:40:30.172Z,98661.38
2023-04-09T06:43:32.889Z,98661.25
2023-04-09T06:46:35.705Z,98659.47
2023-04-09T06:49:38.515Z,98659.31
2023-04-09T06:52:41.894Z,98663.84
2023-04-09T06:55:44.595Z,98670.88
2023-04-09T06:58:47.891Z,98667.75
2023-04-09T07:01:54.722Z,98658.28
2023-04-09T07:04:57.631Z,98672.94
2023-04-09T07:08:00.778Z,98674.97
2023-04-09T07:11:03.972Z,98680.34
2023-04-09T07:14:08.800Z,98676.19
2023-04-09T07:17:11.841Z,98686.31
2023-04-09T07:20:14.807Z,98686.50
2023-04-09T07:23:17.707Z,98683.75
2023-04-09T07:26:21.717Z,98686.59
2023-04-09T07:29:24.630Z,98689.53
2023-04-09T07:32:30.705Z,98684.28
2023-04-09T07:35:35.070Z,98689.19
2023-04-09T07:38:37.944Z,98687.84
2023-04-09T07:41:41.065Z,98686.44
2023-04-09T07:44:44.398Z,98688.66
2023-04-09T07:47:47.512Z,98691.19
2023-04-09T07:50:50.658Z,98702.53
2023-04-09T07:53:53.567Z,98708.38
2023-04-09T07:56:57.223Z,98702.56
2023-04-09T08:00:07.851Z,98695.44
2023-04-09T08:03:16.777Z,98702.91
2023-04-09T08:06:20.241Z,98700.84
2023-04-09T08:09:43.040Z,98706.53
2023-04-09T08:12:46.440Z,98704.44
2023-04-09T08:15:50.030Z,98697.56
2023-04-09T08:18:53.594Z,98701.97
2023-04-09T08:21:57.114Z,98699.00
2023-04-09T08:25:02.557Z,98693.00
2023-04-09T08:28:06.003Z,98694.84
2023-04-09T08:31:10.173Z,98695.94
2023-04-09T08:34:13.643Z,98702.38
2023-04-09T08:37:18.151Z,98703.78
2023-04-09T08:40:21.131Z,98692.50
2023-04-09T08:43:33.693Z,98700.56
2023-04-09T08:46:48.272Z,98699.88
2023-04-09T08:49:54.576Z,98699.34
2023-04-09T08:52:58.843Z,98703.75
2023-04-09T08:56:01.938Z,98708.28
2023-04-09T08:59:04.778Z,98702.63
2023-04-09T09:02:12.250Z,98713.06
2023-04-09T09:05:15.900Z,98716.47
2023-04-09T09:08:26.228Z,98709.19
2023-04-09T09:11:30.707Z,98706.66
2023-04-09T09:14:33.628Z,98712.19
2023-04-09T09:17:56.697Z,98705.97
2023-04-09T09:21:16.717Z,98707.59
2023-04-09T09:24:19.500Z,98703.75
2023-04-09T09:27:43.605Z,98700.28
2023-04-09T09:33:51.770Z,98705.31
2023-04-09T09:36:54.713Z,98704.97
2023-04-09T09:39:58.307Z,98707.41
2023-04-09T09:43:01.240Z,98696.34
2023-04-09T09:46:04.554Z,98707.66
2023-04-09T09:49:08.183Z,98701.63
2023-04-09T09:52:12.361Z,98700.13
2023-04-09T09:55:17.019Z,98699.34
2023-04-09T09:58:32.430Z,98696.00
2023-04-09T10:01:38.422Z,98698.50
2023-04-09T10:04:42.072Z,98697.13
2023-04-09T10:07:45.492Z,98695.50
2023-04-09T10:10:49.010Z,98696.88
2023-04-09T10:13:57.974Z,98702.88
2023-04-09T10:17:01.577Z,98704.91
2023-04-09T10:20:18.685Z,98695.59
2023-04-09T10:23:37.493Z,98695.91
2023-04-09T10:26:41.518Z,98694.16
2023-04-09T10:29:49.806Z,98686.25
2023-04-09T10:32:53.606Z,98679.66
2023-04-09T10:36:01.669Z,98673.06
2023-04-09T10:39:12.916Z,98679.66
2023-04-09T10:42:22.017Z,98679.13
2023-04-09T10:45:26.697Z,98674.84
2023-04-09T10:48:33.608Z,98681.34
2023-04-09T10:51:39.165Z,98675.56
2023-04-09T10:54:45.768Z,98682.41
2023-04-09T10:57:51.483Z,98682.03
2023-04-09T11:00:54.302Z,98678.56
2023-04-09T11:04:10.731Z,98678.72
2023-04-09T11:07:16.184Z,98687.53
2023-04-09T11:10:21.016Z,98687.34
2023-04-09T11:13:23.879Z,98680.19
2023-04-09T11:16:29.023Z,98682.63
2023-04-09T11:19:34.416Z,98677.84
2023-04-09T11:22:38.938Z,98685.56
2023-04-09T11:25:41.953Z,98683.31
2023-04-09T11:28:44.653Z,98687.81
2023-04-09T11:31:49.562Z,98683.69
2023-04-09T11:34:53.427Z,98694.88
2023-04-09T11:37:56.332Z,98686.31
2023-04-09T11:40:58.996Z,98689.31
2023-04-09T11:44:05.952Z,98688.53
2023-04-09T11:47:13.317Z,98693.25
2023-04-09T11:50:16.911Z,98691.22
2023-04-09T11:53:21.471Z,98689.25
2023-04-09T11:56:25.654Z,98688.22
2023-04-09T11:59:29.023Z,98691.19
2023-04-09T12:02:32.035Z,98692.22
2023-04-09T12:05:35.973Z,98694.22
2023-04-09T12:08:39.675Z,98698.91
2023-04-09T12:11:46.533Z,98701.50
2023-04-09T12:14:49.477Z,98702.47
2023-04-09T12:17:59.954Z,98714.00
2023-04-09T12:21:03.213Z,98712.09
2023-04-09T12:24:06.149Z,98707.69
2023-04-09T12:27:08.925Z,98700.81
2023-04-09T12:30:11.888Z,98710.09
2023-04-09T12:33:14.774Z,98700.34
2023-04-09T12:36:17.749Z,98704.47
2023-04-09T12:39:22.813Z,98697.91
2023-04-09T12:42:26.053Z,98700.34
2023-04-09T12:45:32.290Z,98703.31
2023-04-09T12:48:35.587Z,98699.81
2023-04-09T12:51:40.160Z,98706.97
2023-04-09T12:54:45.409Z,98699.50
2023-04-09T12:57:51.309Z,98709.53
2023-04-09T13:00:54.784Z,98697.56
2023-04-09T13:03:58.247Z,98704.16
2023-04-09T13:07:01.658Z,98702.50
2023-04-09T13:10:04.906Z,98708.22
2023-04-09T13:13:12.353Z,98699.72
2023-04-09T13:16:15.129Z,98711.03
2023-04-09T13:19:18.301Z,98701.03
2023-04-09T13:22:21.242Z,98707.88
2023-04-09T13:25:24.219Z,98706.19
2023-04-09T13:28:27.404Z,98708.78
2023-04-09T13:31:31.137Z,98709.03
2023-04-09T13:34:35.403Z,98712.28
2023-04-09T13:37:38.701Z,98715.34
2023-04-09T13:40:41.549Z,98705.41
2023-04-09T13:43:45.598Z,98701.19
2023-04-09T13:46:48.542Z,98701.91
2023-04-09T13:49:53.366Z,98700.94
2023-04-09T13:52:56.440Z,98692.03
2023-04-09T13:55:59.416Z,98695.78
2023-04-09T13:59:02.474Z,98699.06
2023-04-09T14:02:07.263Z,98698.97
2023-04-09T14:05:10.346Z,98693.13
2023-04-09T14:08:13.201Z,98691.75
2023-04-09T14:11:17.139Z,98694.38
2023-04-09T14:14:20.360Z,98696.34
2023-04-09T14:17:23.484Z,98694.94
2023-04-09T14:20:26.631Z,98689.69
2023-04-09T14:23:29.596Z,98686.38
2023-04-09T14:26:32.409Z,98676.69
2023-04-09T14:29:35.576Z,98677.78
2023-04-09T14:32:38.577Z,98683.88
2023-04-09T14:35:41.305Z,98671.16
2023-04-09T14:38:46.537Z,98671.72
2023-04-09T14:41:49.397Z,98680.81
2023-04-09T14:44:52.098Z,98671.84
2023-04-09T14:47:55.465Z,98678.03
2023-04-09T14:50:58.836Z,98677.66
2023-04-09T14:54:02.217Z,98673.38
2023-04-09T14:57:07.503Z,98672.81
2023-04-09T15:00:12.602Z,98660.38
2023-04-09T15:03:15.704Z,98671.59
2023-04-09T15:06:18.811Z,98676.16
2023-04-09T15:09:21.625Z,98679.75
2023-04-09T15:12:24.522Z,98667.84
2023-04-09T15:15:27.346Z,98671.16
2023-04-09T15:18:30.082Z,98662.56
2023-04-09T15:21:33.203Z,98667.44
2023-04-09T15:24:36.005Z,98664.09
2023-04-09T15:27:38.940Z,98664.09
2023-04-09T15:30:42.262Z,98675.59
2023-04-09T15:33:45.793Z,98665.63
2023-04-09T15:36:48.940Z,98663.84
2023-04-09T15:39:51.979Z,98672.97
2023-04-09T15:42:55.293Z,98675.69
2023-04-09T15:45:58.101Z,98673.63
2023-04-09T15:49:01.212Z,98670.34
2023-04-09T15:52:04.343Z,98669.16
2023-04-09T15:55:07.925Z,98672.38
2023-04-09T15:58:10.745Z,98675.06
2023-04-09T16:01:13.964Z,98669.47
2023-04-09T16:04:17.258Z,98673.56
2023-04-09T16:07:20.172Z,98674.19
2023-04-09T16:10:23.131Z,98673.25
2023-04-09T16:13:26.263Z,98675.16
2023-04-09T16:16:29.286Z,98675.13
2023-04-09T16:19:32.309Z,98674.44
2023-04-09T16:22:35.137Z,98671.38
2023-04-09T16:25:37.943Z,98673.19
2023-04-09T16:28:40.717Z,98672.94
2023-04-09T16:31:43.778Z,98670.56
2023-04-09T16:34:47.682Z,98666.81
2023-04-09T16:37:52.483Z,98666.66
2023-04-09T16:40:55.675Z,98664.63
2023-04-09T16:43:58.552Z,98662.00
2023-04-09T16:47:03.060Z,98662.06
2023-04-09T16:50:10.799Z,98666.16
2023-04-09T16:53:14.147Z,98663.97
2023-04-09T16:56:17.358Z,98672.94
2023-04-09T16:59:21.609Z,98667.81
2023-04-09T17:02:25.053Z,98669.47
2023-04-09T17:05:28.334Z,98669.75
2023-04-09T17:08:31.908Z,98679.09
2023-04-09T17:11:35.492Z,98680.91
2023-04-09T17:14:42.692Z,98679.50
2023-04-09T17:17:48.869Z,98679.91
2023-04-09T17:20:53.431Z,98675.06
2023-04-09T17:23:57.057Z,98689.56
2023-04-09T17:27:00.820Z,98676.28
2023-04-09T17:30:06.937Z,98689.75
2023-04-09T17:33:12.219Z,98685.09
2023-04-09T17:36:20.515Z,98686.06
2023-04-09T17:39:29.825Z,98682.38
2023-04-09T17:42:35.059Z,98696.31
2023-04-09T17:45:39.004Z,98695.34
2023-04-09T17:48:43.643Z,98696.06
2023-04-09T17:51:47.731Z,98695.09
2023-04-09T17:54:51.943Z,98697.69
2023-04-09T17:57:55.251Z,98709.72
2023-04-09T18:01:00.199Z,98711.00
2023-04-09T18:04:03.898Z,98707.50
2023-04-09T18:07:07.470Z,98710.50
2023-04-09T18:10:12.743Z,98711.19
2023-04-09T18:13:16.148Z,98709.38
2023-04-09T18:16:21.371Z,98717.03
2023-04-09T18:19:24.822Z,98717.50
2023-04-09T18:22:27.881Z,98722.50
2023-04-09T18:25:31.017Z,98724.56
2023-04-09T18:28:35.420Z,98725.03
2023-04-09T18:31:38.355Z,98719.03
2023-04-09T18:34:41.650Z,98730.84
2023-04-09T18:37:45.119Z,98725.03
2023-04-09T18:40:48.242Z,98727.47
2023-04-09T18:43:51.655Z,98727.25
2023-04-09T18:46:54.482Z,98732.34
2023-04-09T18:49:57.941Z,98735.78
2023-04-09T18:53:01.240Z,98738.38
2023-04-09T18:56:04.374Z,98737.47
2023-04-09T18:59:07.204Z,98737.47
2023-04-09T19:02:10.310Z,98742.69
2023-04-09T19:05:13.139Z,98736.59
2023-04-09T19:08:16.975Z,98733.72
2023-04-09T19:11:19.912Z,98736.81
2023-04-09T19:14:22.632Z,98744.69
2023-04-09T19:17:25.959Z,98746.34
2023-04-09T19:20:29.329Z,98735.47
2023-04-09T19:23:34.552Z,98750.53
2023-04-09T19:26:37.938Z,98738.81
2023-04-09T19:29:40.795Z,98744.25
2023-04-09T19:32:48.153Z,98759.19
2023-04-09T19:35:52.483Z,98753.03
2023-04-09T19:38:55.597Z,98757.53
2023-04-09T19:41:58.961Z,98761.09
2023-04-09T19:45:02.048Z,98748.69
2023-04-09T19:48:08.242Z,98761.19
2023-04-09T19:51:18.257Z,98753.47
2023-04-09T19:54:23.312Z,98750.88
2023-04-09T19:57:26.933Z,98748.25
2023-04-09T20:00:29.983Z,98751.09
2023-04-09T20:03:33.714Z,98737.91
2023-04-09T20:06:36.536Z,98752.75
2023-04-09T20:09:41.755Z,98747.97
2023-04-09T20:12:47.828Z,98747.25
2023-04-09T20:15:50.547Z,98751.63
2023-04-09T20:18:53.757Z,98749.13
2023-04-09T20:21:57.445Z,98743.19
2023-04-09T20:25:01.010Z,98749.97
2023-04-09T20:28:04.657Z,98756.22
2023-04-09T20:31:10.890Z,98748.09
2023-04-09T20:34:13.855Z,98745.69
2023-04-09T20:37:16.862Z,98751.63
2023-04-09T20:40:22.605Z,98745.34
2023-04-09T20:43:25.282Z,98747.34
2023-04-09T20:46:28.235Z,98745.34
2023-04-09T20:49:31.289Z,98749.13
2023-04-09T20:52:34.058Z,98746.78
2023-04-09T20:55:37.674Z,98745.78
2023-04-09T20:58:40.548Z,98750.81
2023-04-09T21:01:43.601Z,98749.50
2023-04-09T21:04:46.922Z,98750.22
2023-04-09T21:07:50.058Z,98754.13
2023-04-09T21:10:53.393Z,98748.19
2023-04-09T21:13:56.347Z,98752.66
2023-04-09T21:17:01.488Z,98753.41
2023-04-09T21:20:04.878Z,98762.38
2023-04-09T21:23:07.711Z,98759.25
2023-04-09T21:26:13.550Z,98756.44
2023-04-09T21:29:16.217Z,98754.25
2023-04-09T21:32:19.020Z,98757.81
2023-04-09T21:35:22.092Z,98759.47
2023-04-09T21:38:24.972Z,98758.03
2023-04-09T21:41:27.742Z,98757.13
2023-04-09T21:44:30.839Z,98753.75
2023-04-09T21:47:33.876Z,98757.59
2023-04-09T21:50:38.928Z,98755.94
2023-04-09T21:53:41.851Z,98760.28
2023-04-09T21:56:44.679Z,98765.75
2023-04-09T21:59:49.492Z,98762.75
2023-04-09T22:02:52.491Z,98768.03
2023-04-09T22:05:55.511Z,98773.78
2023-04-09T22:08:58.788Z,98758.13
2023-04-09T22:12:03.110Z,98775.84
2023-04-09T22:15:07.122Z,98782.22
2023-04-09T22:18:09.860Z,98776.59
2023-04-09T22:21:16.462Z,98775.13
2023-04-09T22:24:19.651Z,98773.81
2023-04-09T22:27:22.576Z,98777.22
2023-04-09T22:30:25.264Z,98770.59
2023-04-09T22:33:28.295Z,98773.31
2023-04-09T22:36:32.202Z,98765.06
2023-04-09T22:39:35.017Z,98770.66
2023-04-09T22:42:37.772Z,98771.06
2023-04-09T22:45:40.400Z,98766.03
2023-04-09T22:48:45.011Z,98768.91
2023-04-09T22:51:48.745Z,98775.16
2023-04-09T22:54:51.731Z,98777.75
2023-04-09T22:57:55.330Z,98775.53
2023-04-09T23:00:58.527Z,98781.63
2023-04-09T23:04:02.218Z,98774.66
2023-04-09T23:07:05.137Z,98771.78
2023-04-09T23:10:08.237Z,98775.69
2023-04-09T23:13:14.252Z,98776.09
2023-04-09T23:16:17.452Z,98780.63
2023-04-09T23:19:20.232Z,98772.75
2023-04-09T23:22:24.644Z,98772.75
2023-04-09T23:25:27.362Z,98770.63
2023-04-09T23:28:30.607Z,98779.78
2023-04-09T23:31:33.278Z,98772.19
2023-04-09T23:34:36.002Z,98777.38
2023-04-09T23:37:42.773Z,98775.56
2023-04-09T23:40:47.581Z,98764.44
2023-04-09T23:43:51.551Z,98770.47
2023-04-09T23:46:54.453Z,98759.72
2023-04-09T23:49:57.253Z,98761.03
2023-04-09T23:53:03.698Z,98766.31
2023-04-09T23:56:06.828Z,98759.81
2023-04-09T23:59:09.638Z,98763.81
